Time;durP1;ratioP1;P1;durP2;ratioP2;P2;SDS_P1;SDS_P2;PMS_P1;PMS_P2;Temp;Humidity;BMP_temperature;BMP_pressure;BME280_temperature;BME280_humidity;BME280_pressure;Samples;Min_cycle;Max_cycle;Signal;HPM_P1;HPM_P2
2023/09/01 00:01:30;;;;;;;13.20;6.15;;;;;;;14.09;93.49;101146.63;5028039;28;20036;-68
2023/09/01 00:03:56;;;;;;;11.75;6.47;;;;;;;14.10;93.76;101142.13;5036799;28;20483;-67
2023/09/01 00:06:21;;;;;;;13.40;6.07;;;;;;;14.08;93.73;101123.59;5032214;28;20091;-67
2023/09/01 00:08:46;;;;;;;11.20;5.93;;;;;;;14.05;93.43;101117.81;5032015;28;20058;-68
2023/09/01 00:11:12;;;;;;;11.48;6.07;;;;;;;13.99;94.03;101123.91;5031728;28;20021;-68
2023/09/01 00:13:38;;;;;;;12.45;6.47;;;;;;;13.99;93.76;101123.91;5033486;28;20467;-68
2023/09/01 00:16:03;;;;;;;12.05;6.38;;;;;;;13.95;94.03;101126.94;5033944;28;20040;-68
2023/09/01 00:18:30;;;;;;;14.05;6.25;;;;;;;13.98;93.87;101117.72;5028164;28;20638;-68
2023/09/01 00:21:03;;;;;;;11.60;5.85;;;;;;;13.99;93.96;101123.91;5030346;28;20018;-68
2023/09/01 00:23:29;;;;;;;12.60;5.70;;;;;;;13.97;94.09;101125.94;5029887;28;20021;-68
2023/09/01 00:25:56;;;;;;;14.02;5.78;;;;;;;13.93;94.20;101123.63;5032264;28;20483;-68
2023/09/01 00:28:22;;;;;;;11.68;6.70;;;;;;;13.93;94.45;101118.31;5027453;28;20021;-68
2023/09/01 00:30:55;;;;;;;13.63;6.53;;;;;;;13.91;94.31;101120.31;5027725;28;20026;-67
2023/09/01 00:33:22;;;;;;;13.77;7.05;;;;;;;13.88;94.39;101117.19;5031002;28;20457;-67
2023/09/01 00:35:49;;;;;;;14.45;6.70;;;;;;;13.85;94.66;101115.69;5032436;28;20430;-68
2023/09/01 00:38:14;;;;;;;13.25;7.30;;;;;;;13.85;94.55;101112.22;5029481;28;20036;-67
2023/09/01 00:40:39;;;;;;;12.55;6.95;;;;;;;13.85;94.86;101113.03;5031536;28;20033;-67
2023/09/01 00:43:05;;;;;;;10.70;7.03;;;;;;;13.84;94.66;101103.38;5035632;28;20034;-68
2023/09/01 00:45:30;;;;;;;13.38;7.13;;;;;;;13.86;94.72;101114.69;5034133;28;20028;-68
2023/09/01 00:47:55;;;;;;;11.10;6.75;;;;;;;13.87;95.19;101103.00;5031313;28;20033;-68
2023/09/01 00:50:21;;;;;;;15.43;7.20;;;;;;;13.86;94.90;101100.50;5029605;28;20025;-67
2023/09/01 00:52:46;;;;;;;17.00;7.70;;;;;;;13.85;94.78;101099.69;5027853;28;20116;-68
2023/09/01 00:55:12;;;;;;;10.15;6.47;;;;;;;13.85;94.89;101101.53;5029980;28;20493;-67
2023/09/01 00:57:37;;;;;;;13.23;6.68;;;;;;;13.87;95.01;101113.69;5034068;28;20032;-68
2023/09/01 01:00:05;;;;;;;11.32;6.78;;;;;;;13.87;94.96;101115.50;5042896;28;20020;-68
2023/09/01 01:02:31;;;;;;;14.35;7.13;;;;;;;13.81;95.02;101109.09;5038114;28;20033;-68
2023/09/01 01:04:56;;;;;;;10.23;6.10;;;;;;;13.86;95.21;101112.03;5033620;28;20024;-68
2023/09/01 01:07:42;;;;;;;13.93;6.72;;;;;;;13.88;95.48;101104.69;5031546;28;20025;-68
2023/09/01 01:10:34;;;;;;;13.70;6.82;;;;;;;13.89;95.77;101113.53;5031835;28;20025;-68
2023/09/01 01:13:09;;;;;;;10.40;6.13;;;;;;;13.87;95.60;101115.50;5042547;28;20033;-68
2023/09/01 01:15:37;;;;;;;14.65;6.55;;;;;;;13.86;95.32;101121.88;5035114;28;20081;-68
2023/09/01 01:18:05;;;;;;;15.18;6.97;;;;;;;13.88;95.33;101122.53;5039083;28;20028;-68
2023/09/01 01:20:33;;;;;;;13.88;6.18;;;;;;;13.89;95.50;101119.69;5039430;28;20067;-68
2023/09/01 01:23:01;;;;;;;13.93;6.70;;;;;;;13.90;95.46;101124.00;5033042;28;20021;-68
2023/09/01 01:25:26;;;;;;;11.73;6.28;;;;;;;13.92;95.43;101123.81;5034942;28;20024;-67
2023/09/01 01:27:57;;;;;;;11.32;6.32;;;;;;;13.95;95.56;101110.94;5040907;28;20033;-68
2023/09/01 01:30:22;;;;;;;10.98;6.45;;;;;;;13.95;95.34;101116.25;5037270;28;20041;-67
2023/09/01 01:32:47;;;;;;;13.45;6.25;;;;;;;13.96;95.17;101119.75;5038394;28;20036;-68
2023/09/01 01:35:35;;;;;;;13.60;6.65;;;;;;;13.95;95.15;101116.25;5039899;28;20041;-68
2023/09/01 01:38:26;;;;;;;11.90;6.68;;;;;;;13.95;95.25;101112.78;5038606;28;20029;-68
2023/09/01 01:40:59;;;;;;;12.98;6.50;;;;;;;13.89;95.26;101111.69;5039732;28;20032;-68
2023/09/01 01:43:27;;;;;;;11.70;6.88;;;;;;;13.88;95.30;101118.03;5048823;28;20025;-68
2023/09/01 01:45:53;;;;;;;15.43;6.95;;;;;;;13.87;95.42;101121.69;5044904;28;20522;-67
2023/09/01 01:48:18;;;;;;;15.15;7.00;;;;;;;13.89;95.49;101114.34;5045099;28;20037;-68
2023/09/01 01:50:43;;;;;;;11.55;6.65;;;;;;;13.88;95.68;101118.03;5037574;28;20033;-68
2023/09/01 01:53:09;;;;;;;13.20;6.55;;;;;;;13.89;95.50;101117.00;5042767;28;20502;-68
2023/09/01 01:55:34;;;;;;;16.27;7.28;;;;;;;13.87;95.75;101116.34;5039097;28;20033;-68
2023/09/01 01:58:00;;;;;;;12.65;6.50;;;;;;;13.88;96.01;101118.03;5044588;28;20025;-68
2023/09/01 02:00:29;;;;;;;13.88;6.57;;;;;;;13.89;95.95;101110.84;5037757;28;20052;-68
2023/09/01 02:02:54;;;;;;;13.90;6.63;;;;;;;13.89;95.87;101108.19;5038575;28;20030;-68
2023/09/01 02:05:20;;;;;;;10.35;6.43;;;;;;;13.88;96.04;101110.03;5040758;28;20040;-68
2023/09/01 02:07:45;;;;;;;15.35;6.55;;;;;;;13.89;96.33;101102.84;5039930;28;20025;-68
2023/09/01 02:10:11;;;;;;;13.30;6.70;;;;;;;13.89;96.26;101111.69;5044061;28;20029;-68
2023/09/01 02:12:36;;;;;;;11.82;6.25;;;;;;;13.91;96.61;101108.81;5045508;28;20047;-68
2023/09/01 02:15:03;;;;;;;17.85;6.88;;;;;;;13.93;96.30;101114.81;5046237;28;20524;-67
2023/09/01 02:17:29;;;;;;;16.35;6.90;;;;;;;13.95;96.58;101112.78;5039299;28;20516;-68
2023/09/01 02:19:55;;;;;;;10.98;6.40;;;;;;;13.94;96.61;101111.94;5039357;28;20546;-68
2023/09/01 02:22:21;;;;;;;11.45;6.40;;;;;;;13.95;96.79;101108.25;5031527;28;20025;-68
2023/09/01 02:24:46;;;;;;;15.00;6.57;;;;;;;13.94;96.92;101103.94;5037907;28;20043;-68
2023/09/01 02:27:11;;;;;;;13.55;6.80;;;;;;;13.98;97.02;101114.25;5036999;28;20039;-68
2023/09/01 02:29:37;;;;;;;14.70;6.70;;;;;;;14.01;97.84;101105.84;5040642;28;20031;-68
2023/09/01 02:32:02;;;;;;;12.18;6.28;;;;;;;14.03;97.32;101109.16;5045441;28;20530;-68
2023/09/01 02:34:27;;;;;;;11.05;6.00;;;;;;;14.00;97.30;101112.22;5037733;28;20029;-68
2023/09/01 02:36:53;;;;;;;12.52;6.70;;;;;;;14.04;97.37;101111.66;5039204;28;20039;-68
2023/09/01 02:39:18;;;;;;;11.23;6.70;;;;;;;14.05;97.15;101107.13;5035678;28;20029;-68
2023/09/01 02:41:43;;;;;;;10.30;6.10;;;;;;;14.06;97.58;101103.44;5038291;28;20116;-68
2023/09/01 02:44:08;;;;;;;11.57;6.85;;;;;;;14.07;97.34;101107.78;5030754;28;20096;-68
2023/09/01 02:46:34;;;;;;;10.75;6.15;;;;;;;14.09;97.41;101101.22;5033225;28;20029;-68
2023/09/01 02:48:59;;;;;;;11.35;6.50;;;;;;;14.09;97.56;101103.06;5045747;28;20107;-68
2023/09/01 02:51:25;;;;;;;11.90;6.55;;;;;;;14.10;97.80;101091.38;5037636;28;20499;-68
2023/09/01 02:53:50;;;;;;;13.10;7.10;;;;;;;14.07;98.05;101089.91;5043853;28;20508;-68
2023/09/01 02:56:17;;;;;;;14.85;6.85;;;;;;;14.09;98.00;101098.56;5034152;28;20044;-67
2023/09/01 02:58:43;;;;;;;14.75;6.82;;;;;;;14.08;97.93;101093.41;5048232;28;20441;-68
2023/09/01 03:01:09;;;;;;;13.48;6.93;;;;;;;14.05;98.16;101093.78;5038982;28;20037;-68
2023/09/01 03:03:36;;;;;;;13.23;6.97;;;;;;;14.08;98.08;101093.41;5047458;28;20118;-68
2023/09/01 03:06:04;;;;;;;13.00;7.13;;;;;;;14.04;97.74;101098.28;5031505;28;20116;-67
2023/09/01 03:08:29;;;;;;;13.05;7.00;;;;;;;14.06;97.96;101087.41;5049343;28;20079;-68
2023/09/01 03:10:54;;;;;;;17.23;7.40;;;;;;;14.04;97.74;101079.59;5039114;28;20056;-67
2023/09/01 03:13:20;;;;;;;16.33;7.10;;;;;;;14.08;98.13;101082.72;5046075;28;20032;-67
2023/09/01 03:15:45;;;;;;;12.27;6.90;;;;;;;14.07;97.50;101092.56;5039210;28;20525;-68
2023/09/01 03:18:11;;;;;;;14.95;6.93;;;;;;;14.08;97.77;101090.72;5033560;28;20090;-68
2023/09/01 03:20:37;;;;;;;12.75;6.85;;;;;;;14.08;97.60;101080.88;5039702;28;20101;-68
2023/09/01 03:23:02;;;;;;;14.07;7.10;;;;;;;14.07;97.75;101092.56;5047266;28;20562;-68
2023/09/01 03:25:27;;;;;;;12.30;6.82;;;;;;;14.05;97.68;101086.59;5037230;28;20104;-67
2023/09/01 03:27:53;;;;;;;14.20;6.90;;;;;;;14.07;97.82;101089.91;5044707;28;20032;-68
2023/09/01 03:30:18;;;;;;;13.52;7.28;;;;;;;14.07;97.80;101083.75;5045026;28;20082;-67
2023/09/01 03:32:43;;;;;;;14.57;6.80;;;;;;;14.08;97.96;101080.88;5033417;28;20021;-68
2023/09/01 03:35:09;;;;;;;13.23;6.80;;;;;;;14.06;97.81;101082.06;5037014;28;20017;-68
2023/09/01 03:37:35;;;;;;;16.95;7.35;;;;;;;14.04;98.07;101082.28;5045612;28;20510;-68
2023/09/01 03:40:00;;;;;;;12.25;6.95;;;;;;;14.06;97.97;101088.25;5032119;28;20394;-68
2023/09/01 03:42:26;;;;;;;12.20;7.03;;;;;;;14.07;98.16;101078.41;5035990;28;20486;-68
2023/09/01 03:44:52;;;;;;;15.38;7.32;;;;;;;14.07;97.92;101075.72;5040072;28;20025;-68
2023/09/01 03:47:18;;;;;;;16.88;7.28;;;;;;;14.06;98.11;101080.25;5045763;28;20562;-67
2023/09/01 03:49:44;;;;;;;14.70;7.22;;;;;;;14.07;98.32;101070.38;5034918;28;20032;-68
2023/09/01 03:52:09;;;;;;;16.17;7.45;;;;;;;14.06;98.04;101077.56;5030139;28;20025;-67
2023/09/01 03:54:34;;;;;;;11.93;7.38;;;;;;;14.09;98.43;101073.69;5040783;28;20055;-68
2023/09/01 03:57:00;;;;;;;13.60;7.18;;;;;;;14.12;98.32;101073.31;5042630;28;20043;-68
2023/09/01 03:59:25;;;;;;;17.63;7.57;;;;;;;14.08;98.29;101061.34;5040159;28;20029;-68
2023/09/01 04:01:51;;;;;;;13.55;7.07;;;;;;;14.15;98.34;101072.94;5044532;28;20032;-68
2023/09/01 04:04:17;;;;;;;13.98;7.15;;;;;;;14.17;98.42;101076.28;5038465;28;20040;-68
2023/09/01 04:06:42;;;;;;;14.15;7.80;;;;;;;14.15;98.33;101064.91;5037032;28;20032;-68
2023/09/01 04:09:08;;;;;;;14.52;7.30;;;;;;;14.14;98.33;101048.06;5045325;28;20028;-67
2023/09/01 04:11:34;;;;;;;13.35;7.15;;;;;;;14.11;98.17;101050.28;5042577;28;20033;-67
2023/09/01 04:14:00;;;;;;;12.93;7.47;;;;;;;14.09;98.52;101050.47;5038681;28;20024;-68
2023/09/01 04:16:25;;;;;;;13.60;7.70;;;;;;;14.10;98.54;101054.81;5047084;28;20036;-67
2023/09/01 04:18:51;;;;;;;11.98;7.40;;;;;;;14.10;98.79;101054.81;5040906;28;20021;-68
2023/09/01 04:21:16;;;;;;;13.30;7.35;;;;;;;14.11;98.68;101050.28;5037179;28;20029;-67
2023/09/01 04:23:41;;;;;;;13.52;7.50;;;;;;;14.12;98.93;101055.44;5030625;28;20087;-68
2023/09/01 04:26:07;;;;;;;13.10;7.38;;;;;;;14.13;98.93;101056.28;5030814;28;20029;-68
2023/09/01 04:28:33;;;;;;;13.40;7.10;;;;;;;14.13;99.01;101056.28;5037506;28;20041;-68
2023/09/01 04:30:59;;;;;;;14.73;7.68;;;;;;;14.14;98.72;101053.41;5032349;28;20033;-68
2023/09/01 04:33:26;;;;;;;12.52;7.60;;;;;;;14.15;98.79;101051.56;5036506;28;20111;-68
2023/09/01 04:36:03;;;;;;;13.52;7.40;;;;;;;14.13;98.95;101061.63;5037901;28;20124;-68
2023/09/01 04:38:28;;;;;;;13.73;8.20;;;;;;;14.15;98.87;101057.72;5035504;28;20387;-68
2023/09/01 04:40:57;;;;;;;16.15;8.25;;;;;;;14.17;98.98;101058.41;5037411;28;20484;-67
2023/09/01 04:43:26;;;;;;;13.18;7.80;;;;;;;14.16;98.91;101062.06;5039256;28;20029;-68
2023/09/01 04:45:56;;;;;;;;;;;;;;;14.27;98.89;101074.13;5040631;28;20505;-68
2023/09/01 04:48:21;;;;;;;;;;;;;;;14.29;98.82;101071.25;5040514;28;20453;-68
2023/09/01 04:50:47;;;;;;;12.15;7.70;;;;;;;14.21;98.68;101066.88;5033445;28;20003;-68
2023/09/01 04:53:12;;;;;;;16.15;8.60;;;;;;;14.22;99.16;101071.19;5041755;28;20028;-68
2023/09/01 04:55:37;;;;;;;14.32;8.38;;;;;;;14.23;99.24;101068.31;5039017;28;20023;-68
2023/09/01 04:58:03;;;;;;;12.15;8.13;;;;;;;14.24;99.27;101078.00;5043998;28;20479;-67
2023/09/01 05:00:28;;;;;;;13.68;8.00;;;;;;;14.25;99.37;101070.81;5039351;28;20021;-68
2023/09/01 05:02:54;;;;;;;16.80;8.60;;;;;;;14.24;99.39;101064.63;5035761;28;20028;-68
2023/09/01 05:05:19;;;;;;;13.25;7.85;;;;;;;14.26;99.44;101067.13;5053626;28;20399;-68
2023/09/01 05:07:45;;;;;;;16.25;8.23;;;;;;;14.25;99.41;101060.13;5052580;28;20024;-68
2023/09/01 05:10:10;;;;;;;18.08;8.48;;;;;;;14.24;99.69;101048.59;5035746;28;20025;-68
2023/09/01 05:12:36;;;;;;;13.68;8.02;;;;;;;14.29;99.64;101071.25;5035025;28;20364;-68
2023/09/01 05:15:01;;;;;;;17.60;8.38;;;;;;;14.30;99.79;101079.06;5041259;28;20409;-68
2023/09/01 05:17:27;;;;;;;12.60;8.25;;;;;;;14.31;99.88;101075.38;5039336;28;20025;-68
2023/09/01 05:19:53;;;;;;;14.80;8.02;;;;;;;14.33;99.77;101072.53;5037596;28;20476;-68
2023/09/01 05:22:18;;;;;;;13.02;7.78;;;;;;;14.33;99.77;101068.00;5034986;28;20033;-68
2023/09/01 05:24:44;;;;;;;13.35;7.45;;;;;;;14.34;99.88;101063.50;5044768;28;20036;-67
2023/09/01 05:27:09;;;;;;;14.57;7.80;;;;;;;14.35;99.91;101063.31;5036064;28;20025;-67
2023/09/01 05:29:34;;;;;;;11.98;7.57;;;;;;;14.34;100.00;101058.16;5035032;28;20025;-68
2023/09/01 05:32:00;;;;;;;12.85;8.10;;;;;;;14.34;99.99;101069.66;5034740;28;20028;-68
2023/09/01 05:34:25;;;;;;;14.38;8.43;;;;;;;14.34;99.79;101066.16;5042341;28;20033;-68
2023/09/01 05:36:50;;;;;;;14.50;8.45;;;;;;;14.35;100.00;101076.66;5043162;28;20024;-68
2023/09/01 05:39:15;;;;;;;16.35;8.52;;;;;;;14.37;100.00;101066.59;5040181;28;20036;-68
2023/09/01 05:41:41;;;;;;;12.98;8.07;;;;;;;14.38;100.00;101064.75;5034950;28;20428;-68
2023/09/01 05:44:06;;;;;;;14.43;8.43;;;;;;;14.40;100.00;101070.75;5037357;28;20036;-67
2023/09/01 05:46:31;;;;;;;17.15;8.40;;;;;;;14.41;100.00;101075.91;5038936;28;20029;-67
2023/09/01 05:48:56;;;;;;;15.27;8.50;;;;;;;14.41;100.00;101080.41;5030931;28;20025;-68
2023/09/01 05:51:22;;;;;;;16.23;8.65;;;;;;;14.44;100.00;101085.41;5034708;28;20025;-68
2023/09/01 05:53:47;;;;;;;13.07;8.30;;;;;;;14.45;100.00;101074.53;5038099;28;20025;-68
2023/09/01 05:56:12;;;;;;;16.15;8.77;;;;;;;14.48;100.00;101071.50;5035377;28;20035;-68
2023/09/01 05:58:38;;;;;;;18.30;9.10;;;;;;;14.48;100.00;101066.16;5036152;28;20025;-68
2023/09/01 06:01:03;;;;;;;15.93;8.65;;;;;;;14.51;100.00;101073.78;5030454;28;20029;-68
2023/09/01 06:03:29;;;;;;;15.77;8.63;;;;;;;14.52;100.00;101074.63;5037160;28;20030;-68
2023/09/01 06:05:54;;;;;;;16.35;8.35;;;;;;;14.54;100.00;101069.91;5032206;28;20032;-68
2023/09/01 06:08:19;;;;;;;13.70;8.38;;;;;;;14.55;100.00;101061.69;5045467;28;20505;-68
2023/09/01 06:10:44;;;;;;;14.38;9.02;;;;;;;14.56;100.00;101071.38;5032640;28;20026;-68
2023/09/01 06:13:10;;;;;;;17.77;8.93;;;;;;;14.59;100.00;101069.31;5039963;28;20120;-68
2023/09/01 06:15:35;;;;;;;16.02;8.65;;;;;;;14.61;100.00;101072.63;5030013;28;20052;-68
2023/09/01 06:18:00;;;;;;;15.40;9.15;;;;;;;14.66;100.00;101072.88;5031263;28;20030;-68
2023/09/01 06:20:28;;;;;;;13.43;8.35;;;;;;;14.66;100.00;101072.88;5030374;28;20108;-68
2023/09/01 06:22:54;;;;;;;14.48;8.32;;;;;;;14.67;100.00;101079.88;5030187;28;20025;-67
2023/09/01 06:25:19;;;;;;;13.82;8.45;;;;;;;14.68;100.00;101077.00;5030766;28;20029;-66
2023/09/01 06:27:45;;;;;;;14.25;8.20;;;;;;;14.71;100.00;101075.81;5034530;28;20036;-66
2023/09/01 06:30:10;;;;;;;15.25;8.43;;;;;;;14.73;100.00;101079.94;5033688;28;20083;-66
2023/09/01 06:32:35;;;;;;;12.93;8.65;;;;;;;14.76;100.00;101078.75;5040124;28;20043;-66
2023/09/01 06:35:01;;;;;;;13.93;8.93;;;;;;;14.79;100.00;101076.53;5038248;28;20071;-66
2023/09/01 06:37:26;;;;;;;14.23;8.40;;;;;;;14.79;100.00;101078.38;5035676;28;20406;-66
2023/09/01 06:39:52;;;;;;;13.80;8.52;;;;;;;14.85;100.00;101077.59;5037541;28;20049;-66
2023/09/01 06:42:17;;;;;;;15.43;8.73;;;;;;;14.85;100.00;101075.75;5032012;28;20033;-66
2023/09/01 06:44:42;;;;;;;16.98;9.27;;;;;;;14.85;100.00;101067.72;5037551;28;20017;-65
2023/09/01 06:47:08;;;;;;;16.98;9.30;;;;;;;14.91;100.00;101084.84;5029899;28;20520;-66
2023/09/01 06:49:33;;;;;;;18.13;9.13;;;;;;;14.88;100.00;101091.41;5041407;28;20029;-66
2023/09/01 06:51:58;;;;;;;16.35;9.70;;;;;;;14.88;100.00;101101.28;5036147;28;20039;-66
2023/09/01 06:54:24;;;;;;;16.33;9.52;;;;;;;14.93;100.00;101100.69;5030332;28;20043;-66
2023/09/01 06:56:49;;;;;;;17.75;9.48;;;;;;;14.92;100.00;101101.72;5028768;28;20025;-66
2023/09/01 06:59:14;;;;;;;16.55;9.52;;;;;;;14.98;100.00;101095.59;5028207;28;20044;-67
2023/09/01 07:01:40;;;;;;;15.68;9.90;;;;;;;15.01;100.00;101092.53;5030176;28;20544;-66
2023/09/01 07:04:05;;;;;;;21.25;10.80;;;;;;;15.04;100.00;101093.00;5031247;28;20037;-66
2023/09/01 07:06:31;;;;;;;16.30;10.20;;;;;;;15.05;100.00;101083.13;5033153;28;20029;-66
2023/09/01 07:08:56;;;;;;;20.08;10.30;;;;;;;15.09;100.00;101079.84;5030200;28;20025;-66
2023/09/01 07:11:21;;;;;;;17.25;10.23;;;;;;;15.08;100.00;101072.84;5029750;28;20083;-66
2023/09/01 07:13:47;;;;;;;15.15;10.10;;;;;;;15.13;100.00;101074.94;5038328;28;20055;-66
2023/09/01 07:16:12;;;;;;;12.75;9.80;;;;;;;15.15;100.00;101071.03;5036946;28;20026;-66
2023/09/01 07:18:38;;;;;;;15.30;9.55;;;;;;;15.16;100.00;101074.53;5036322;28;20029;-66
2023/09/01 07:21:03;;;;;;;14.82;9.93;;;;;;;15.16;100.00;101071.88;5031443;28;21177;-66
2023/09/01 07:23:28;;;;;;;14.77;10.20;;;;;;;15.17;100.00;101070.84;5033003;28;20834;-66
2023/09/01 07:25:54;;;;;;;15.95;10.23;;;;;;;15.16;100.00;101075.38;5029502;28;20529;-66
2023/09/01 07:28:20;;;;;;;12.82;9.77;;;;;;;15.16;100.00;101070.03;5036785;28;20112;-66
2023/09/01 07:30:46;;;;;;;21.05;10.75;;;;;;;15.17;100.00;101068.16;5044827;28;20620;-66
2023/09/01 07:33:11;;;;;;;15.82;9.57;;;;;;;15.19;100.00;101064.28;5036821;28;20068;-66
2023/09/01 07:35:36;;;;;;;18.33;10.90;;;;;;;15.22;100.00;101062.22;5036996;28;20502;-66
2023/09/01 07:38:06;;;;;;;16.15;10.57;;;;;;;15.24;100.00;101060.19;5027798;28;20049;-66
2023/09/01 07:40:32;;;;;;;15.18;10.48;;;;;;;15.25;100.00;101060.00;5034199;28;20056;-66
2023/09/01 07:42:59;;;;;;;18.13;11.15;;;;;;;15.25;100.00;101056.50;5034215;28;20051;-66
2023/09/01 07:45:25;;;;;;;19.65;10.93;;;;;;;15.28;100.00;101056.09;5034454;28;20040;-66
2023/09/01 07:47:50;;;;;;;16.60;11.10;;;;;;;15.29;100.00;101060.41;5035734;28;20020;-66
2023/09/01 07:50:16;;;;;;;16.85;11.18;;;;;;;15.32;100.00;101057.34;5028002;28;20037;-66
2023/09/01 07:52:41;;;;;;;16.70;10.90;;;;;;;15.34;100.00;101060.69;5028227;28;20020;-66
2023/09/01 07:55:07;;;;;;;18.52;10.98;;;;;;;15.35;100.00;101057.81;5033131;28;20053;-66
2023/09/01 07:57:32;;;;;;;14.10;10.68;;;;;;;15.38;100.00;101060.09;5032137;28;20025;-66
2023/09/01 07:59:57;;;;;;;17.70;11.05;;;;;;;15.44;100.00;101071.84;5030972;28;20131;-66
2023/09/01 08:02:23;;;;;;;14.93;10.70;;;;;;;15.49;100.00;101069.41;5035564;28;20032;-64
2023/09/01 08:04:48;;;;;;;16.65;11.63;;;;;;;15.56;100.00;101080.16;5036067;28;20425;-66
2023/09/01 08:07:14;;;;;;;18.83;11.30;;;;;;;15.58;100.00;101086.13;5034558;28;20096;-66
2023/09/01 08:09:39;;;;;;;14.93;10.73;;;;;;;15.59;100.00;101085.97;5031666;28;20534;-66
2023/09/01 08:12:04;;;;;;;15.90;10.52;;;;;;;15.61;100.00;101085.75;5033714;28;20035;-66
2023/09/01 08:14:30;;;;;;;14.95;10.50;;;;;;;15.60;100.00;101095.66;5028831;28;20104;-66
2023/09/01 08:16:55;;;;;;;14.25;11.15;;;;;;;15.61;100.00;101094.66;5034235;28;20111;-66
2023/09/01 08:19:20;;;;;;;16.88;11.43;;;;;;;15.63;100.00;101097.97;5028721;28;20978;-66
2023/09/01 08:21:46;;;;;;;14.63;10.90;;;;;;;15.68;100.00;101105.38;5034694;28;20042;-65
2023/09/01 08:24:11;;;;;;;13.55;11.25;;;;;;;15.71;100.00;101103.13;5029043;28;20417;-66
2023/09/01 08:26:36;;;;;;;13.65;10.80;;;;;;;15.70;100.00;101106.03;5029601;28;20021;-66
2023/09/01 08:29:04;;;;;;;15.20;11.38;;;;;;;15.73;100.00;101103.78;5030891;28;20025;-66
2023/09/01 08:31:29;;;;;;;14.85;10.80;;;;;;;15.73;100.00;101100.25;5033307;28;20029;-66
2023/09/01 08:33:55;;;;;;;14.27;11.00;;;;;;;15.69;100.00;101096.34;5031081;28;20083;-66
2023/09/01 08:36:21;;;;;;;16.00;11.68;;;;;;;15.68;100.00;101103.53;5030574;28;20045;-66
2023/09/01 08:38:46;;;;;;;18.48;11.70;;;;;;;15.73;100.00;101106.44;5030858;28;20017;-66
2023/09/01 08:41:12;;;;;;;13.63;10.68;;;;;;;15.77;100.00;101110.38;5030651;28;20053;-66
2023/09/01 08:43:38;;;;;;;19.05;11.20;;;;;;;15.79;100.00;101112.84;5030101;28;20493;-66
2023/09/01 08:46:04;;;;;;;14.68;10.75;;;;;;;15.77;100.00;101115.72;5030183;28;20028;-66
2023/09/01 08:48:33;;;;;;;15.30;10.77;;;;;;;15.77;100.00;101115.72;5043964;28;20078;-66
2023/09/01 08:50:59;;;;;;;;;;;;;;;15.86;100.00;101123.59;5037700;28;20029;-66
2023/09/01 08:53:25;;;;;;;16.15;10.82;;;;;;;15.80;100.00;101112.66;5032355;28;19917;-66
2023/09/01 08:55:52;;;;;;;13.13;10.65;;;;;;;15.80;100.00;101118.00;5027705;28;20029;-66
2023/09/01 08:58:17;;;;;;;14.73;11.23;;;;;;;15.83;100.00;101126.66;5038009;28;20025;-66
2023/09/01 09:00:43;;;;;;;12.85;10.48;;;;;;;15.82;100.00;101119.66;5028674;28;20048;-66
2023/09/01 09:03:11;;;;;;;13.40;10.80;;;;;;;15.80;100.00;101126.03;5026747;28;20496;-66
2023/09/01 09:05:36;;;;;;;13.18;10.63;;;;;;;15.84;100.00;101117.63;5029566;28;20033;-66
2023/09/01 09:08:07;;;;;;;17.17;10.90;;;;;;;15.82;100.00;101120.50;5036425;28;20443;-67
2023/09/01 09:10:37;;;;;;;13.50;10.75;;;;;;;15.79;100.00;101126.25;5030300;28;20022;-67
2023/09/01 09:13:21;;;;;;;13.15;10.80;;;;;;;15.77;100.00;101130.97;5026703;28;20034;-67
2023/09/01 09:16:05;;;;;;;13.90;10.15;;;;;;;15.75;100.00;101128.50;5030543;28;20052;-67
2023/09/01 09:18:31;;;;;;;13.48;10.35;;;;;;;15.71;100.00;101126.41;5028086;28;20436;-67
2023/09/01 09:20:56;;;;;;;12.57;10.15;;;;;;;15.71;100.00;101123.72;5031485;28;20120;-67
2023/09/01 09:23:21;;;;;;;12.68;10.30;;;;;;;15.70;100.00;101125.59;5035088;28;20025;-67
2023/09/01 09:25:49;;;;;;;12.57;10.32;;;;;;;15.71;100.00;101132.59;5038199;28;20033;-67
2023/09/01 09:28:18;;;;;;;12.15;9.95;;;;;;;15.70;100.00;101135.47;5031154;28;20083;-67
2023/09/01 09:30:51;;;;;;;14.00;9.90;;;;;;;15.73;100.00;101125.19;5042057;28;20025;-66
2023/09/01 09:33:26;;;;;;;11.98;10.50;;;;;;;15.74;100.00;101136.72;5032839;28;20045;-67
2023/09/01 09:35:52;;;;;;;11.70;9.98;;;;;;;15.73;100.00;101127.88;5041123;28;20021;-67
2023/09/01 09:38:17;;;;;;;12.77;10.80;;;;;;;15.73;100.00;101138.56;5030166;28;20033;-67
2023/09/01 09:40:55;;;;;;;12.13;10.75;;;;;;;15.76;100.00;101143.53;5031662;28;20025;-67
2023/09/01 09:43:20;;;;;;;13.60;11.63;;;;;;;15.79;100.00;101145.00;5032009;28;20025;-66
2023/09/01 09:45:47;;;;;;;12.93;11.07;;;;;;;15.83;100.00;101150.78;5031705;28;20029;-67
2023/09/01 09:48:13;;;;;;;14.55;12.52;;;;;;;15.81;100.00;101153.66;5036007;28;20509;-67
2023/09/01 09:50:39;;;;;;;13.57;11.32;;;;;;;15.83;100.00;101154.28;5036025;28;20023;-67
2023/09/01 09:53:05;;;;;;;13.70;11.07;;;;;;;15.84;100.00;101155.94;5031867;28;20057;-67
2023/09/01 09:55:43;;;;;;;14.07;11.70;;;;;;;15.84;100.00;101155.09;5035697;28;20160;-67
2023/09/01 09:58:09;;;;;;;13.93;11.85;;;;;;;15.90;100.00;101146.28;5031882;28;20541;-67
2023/09/01 10:00:53;;;;;;;13.38;11.98;;;;;;;15.91;100.00;101150.63;5035350;28;20029;-67
2023/09/01 10:03:23;;;;;;;17.83;12.75;;;;;;;15.89;100.00;101150.81;5032321;28;20033;-67
2023/09/01 10:05:50;;;;;;;13.73;12.13;;;;;;;15.91;100.00;101151.47;5035153;28;20466;-67
2023/09/01 10:08:18;;;;;;;14.82;12.45;;;;;;;15.93;100.00;101140.56;5040678;28;20029;-67
2023/09/01 10:10:44;;;;;;;16.65;12.70;;;;;;;15.94;100.00;101142.19;5032253;28;20141;-67
2023/09/01 10:13:09;;;;;;;14.27;12.77;;;;;;;15.97;100.00;101139.13;5034718;28;20657;-67
2023/09/01 10:15:36;;;;;;;14.27;12.77;;;;;;;15.96;100.00;101138.31;5034978;28;20030;-67
2023/09/01 10:18:04;;;;;;;15.98;12.77;;;;;;;15.95;100.00;101138.50;5034823;28;20534;-67
2023/09/01 10:20:35;;;;;;;13.77;12.32;;;;;;;15.96;100.00;101138.31;5046691;28;20041;-67
2023/09/01 10:23:04;;;;;;;16.00;12.80;;;;;;;15.95;100.00;101136.66;5039515;28;20031;-67
2023/09/01 10:25:30;;;;;;;15.23;12.23;;;;;;;15.98;100.00;101130.06;5032103;28;20380;-67
2023/09/01 10:28:13;;;;;;;14.80;12.75;;;;;;;16.00;100.00;101128.84;5041538;28;20065;-67
2023/09/01 10:30:43;;;;;;;15.55;12.20;;;;;;;16.05;100.00;101138.94;5047380;28;20037;-67
2023/09/01 10:33:26;;;;;;;14.45;12.30;;;;;;;16.09;100.00;101137.53;5047187;28;20104;-67
2023/09/01 10:35:53;;;;;;;16.58;12.82;;;;;;;16.16;100.00;101142.91;5034176;28;20028;-67
2023/09/01 10:38:21;;;;;;;14.35;12.82;;;;;;;16.18;100.00;101149.72;5036418;28;20059;-67
2023/09/01 10:40:48;;;;;;;14.10;12.60;;;;;;;16.20;100.00;101147.69;5031078;28;20068;-67
2023/09/01 10:43:35;;;;;;;13.98;12.48;;;;;;;16.27;100.00;101150.38;5033879;28;20052;-67
2023/09/01 10:46:12;;;;;;;13.75;12.15;;;;;;;16.29;100.00;101151.00;5038677;28;20030;-67
2023/09/01 10:49:07;;;;;;;14.27;12.60;;;;;;;16.34;100.00;101154.75;5041592;28;20107;-67
2023/09/01 10:51:34;;;;;;;14.18;12.18;;;;;;;16.37;100.00;101156.19;5038284;28;20044;-67
2023/09/01 10:54:19;;;;;;;12.68;11.43;;;;;;;16.45;100.00;101161.38;5031689;28;20033;-67
2023/09/01 10:57:04;;;;;;;14.55;11.98;;;;;;;16.58;100.00;101160.59;5038879;28;20047;-67
2023/09/01 10:59:36;;;;;;;12.70;11.45;;;;;;;16.65;100.00;101164.13;5036838;28;20017;-67
2023/09/01 11:02:21;;;;;;;12.90;11.02;;;;;;;16.70;100.00;101153.63;5041690;28;20048;-67
2023/09/01 11:04:47;;;;;;;11.77;10.57;;;;;;;16.73;100.00;101153.22;5034930;28;20116;-67
2023/09/01 11:07:13;;;;;;;10.88;9.77;;;;;;;16.74;100.00;101154.88;5038153;28;20048;-67
2023/09/01 11:09:44;;;;;;;10.40;9.40;;;;;;;16.70;100.00;101159.00;5036863;28;20048;-67
2023/09/01 11:12:12;;;;;;;10.23;9.32;;;;;;;16.68;100.00;101156.53;5037064;28;20025;-66